sensor_id;sensor_type;location;lat;lon;timestamp;temperature;humidity
19000;DHT22;9633;50.980;13.850;2023-02-27T00:01:05;-2.70;99.90
19000;DHT22;9633;50.980;13.850;2023-02-27T00:02:39;-2.70;99.90
19000;DHT22;9633;50.980;13.850;2023-02-27T00:04:13;-2.70;99.90
19000;DHT22;9633;50.980;13.850;2023-02-27T00:05:46;-2.70;99.90
19000;DHT22;9633;50.980;13.850;2023-02-27T00:07:19;-2.70;99.90
19000;DHT22;9633;50.980;13.850;2023-02-27T00:08:56;-2.70;99.90
19000;DHT22;9633;50.980;13.850;2023-02-27T00:10:29;-2.70;99.90
19000;DHT22;9633;50.980;13.850;2023-02-27T00:12:03;-2.70;99.90
19000;DHT22;9633;50.980;13.850;2023-02-27T00:13:36;-2.70;99.90
19000;DHT22;9633;50.980;13.850;2023-02-27T00:15:10;-2.60;99.90
19000;DHT22;9633;50.980;13.850;2023-02-27T00:16:44;-2.50;99.90
19000;DHT22;9633;50.980;13.850;2023-02-27T00:18:17;-2.50;99.90
19000;DHT22;9633;50.980;13.850;2023-02-27T00:19:51;-2.40;99.90
19000;DHT22;9633;50.980;13.850;2023-02-27T00:21:25;-2.40;99.90
19000;DHT22;9633;50.980;13.850;2023-02-27T00:22:58;-2.40;99.90
19000;DHT22;9633;50.980;13.850;2023-02-27T00:24:31;-2.40;99.90
19000;DHT22;9633;50.980;13.850;2023-02-27T00:26:04;-2.40;99.90
19000;DHT22;9633;50.980;13.850;2023-02-27T00:27:38;-2.30;99.90
19000;DHT22;9633;50.980;13.850;2023-02-27T00:29:10;-2.40;99.90
19000;DHT22;9633;50.980;13.850;2023-02-27T00:30:43;-2.30;99.90
19000;DHT22;9633;50.980;13.850;2023-02-27T00:32:16;-2.40;99.90
19000;DHT22;9633;50.980;13.850;2023-02-27T00:33:51;-2.30;99.90
19000;DHT22;9633;50.980;13.850;2023-02-27T00:35:25;-2.30;99.90
19000;DHT22;9633;50.980;13.850;2023-02-27T00:36:59;-2.30;99.90
19000;DHT22;9633;50.980;13.850;2023-02-27T00:38:32;-2.20;99.90
19000;DHT22;9633;50.980;13.850;2023-02-27T00:40:06;-2.10;99.90
19000;DHT22;9633;50.980;13.850;2023-02-27T00:41:39;-2.10;99.90
19000;DHT22;9633;50.980;13.850;2023-02-27T00:43:13;-2.10;99.90
19000;DHT22;9633;50.980;13.850;2023-02-27T00:44:46;-2.10;99.90
19000;DHT22;9633;50.980;13.850;2023-02-27T00:46:19;-2.20;99.90
19000;DHT22;9633;50.980;13.850;2023-02-27T00:47:55;-2.20;99.90
19000;DHT22;9633;50.980;13.850;2023-02-27T00:49:28;-2.20;99.90
19000;DHT22;9633;50.980;13.850;2023-02-27T00:51:02;-2.40;99.90
19000;DHT22;9633;50.980;13.850;2023-02-27T00:52:36;-2.50;99.90
19000;DHT22;9633;50.980;13.850;2023-02-27T00:54:09;-2.50;99.90
19000;DHT22;9633;50.980;13.850;2023-02-27T00:55:42;-2.60;99.90
19000;DHT22;9633;50.980;13.850;2023-02-27T00:57:15;-2.70;99.90
19000;DHT22;9633;50.980;13.850;2023-02-27T00:58:48;-2.70;99.90
19000;DHT22;9633;50.980;13.850;2023-02-27T01:00:22;-2.80;99.90
19000;DHT22;9633;50.980;13.850;2023-02-27T01:01:55;-2.90;99.90
19000;DHT22;9633;50.980;13.850;2023-02-27T01:03:30;-2.90;99.90
19000;DHT22;9633;50.980;13.850;2023-02-27T01:05:04;-2.90;99.90
19000;DHT22;9633;50.980;13.850;2023-02-27T01:06:38;-3.00;99.90
19000;DHT22;9633;50.980;13.850;2023-02-27T01:08:11;-3.00;99.90
19000;DHT22;9633;50.980;13.850;2023-02-27T01:09:45;-3.10;99.90
19000;DHT22;9633;50.980;13.850;2023-02-27T01:11:18;-3.20;99.90
19000;DHT22;9633;50.980;13.850;2023-02-27T01:12:51;-3.30;99.90
19000;DHT22;9633;50.980;13.850;2023-02-27T01:14:25;-3.30;99.90
19000;DHT22;9633;50.980;13.850;2023-02-27T01:15:58;-3.40;99.90
19000;DHT22;9633;50.980;13.850;2023-02-27T01:17:33;-3.50;99.90
19000;DHT22;9633;50.980;13.850;2023-02-27T01:19:08;-3.60;99.90
19000;DHT22;9633;50.980;13.850;2023-02-27T01:20:41;-3.60;99.90
19000;DHT22;9633;50.980;13.850;2023-02-27T01:22:18;-3.70;99.90
19000;DHT22;9633;50.980;13.850;2023-02-27T01:23:51;-3.60;99.90
19000;DHT22;9633;50.980;13.850;2023-02-27T01:25:24;-3.70;99.90
19000;DHT22;9633;50.980;13.850;2023-02-27T01:26:57;-3.70;99.90
19000;DHT22;9633;50.980;13.850;2023-02-27T01:28:31;-3.70;99.90
19000;DHT22;9633;50.980;13.850;2023-02-27T01:30:05;-3.70;99.90
19000;DHT22;9633;50.980;13.850;2023-02-27T01:31:38;-3.60;99.90
19000;DHT22;9633;50.980;13.850;2023-02-27T01:33:11;-3.50;99.90
19000;DHT22;9633;50.980;13.850;2023-02-27T01:34:45;-3.50;99.90
19000;DHT22;9633;50.980;13.850;2023-02-27T01:36:18;-3.40;99.90
19000;DHT22;9633;50.980;13.850;2023-02-27T01:37:53;-3.30;99.90
19000;DHT22;9633;50.980;13.850;2023-02-27T01:39:25;-3.30;99.90
19000;DHT22;9633;50.980;13.850;2023-02-27T01:40:59;-3.20;99.90
19000;DHT22;9633;50.980;13.850;2023-02-27T01:42:32;-3.20;99.90
19000;DHT22;9633;50.980;13.850;2023-02-27T01:44:07;-3.30;99.90
19000;DHT22;9633;50.980;13.850;2023-02-27T01:45:42;-3.20;99.90
19000;DHT22;9633;50.980;13.850;2023-02-27T01:47:18;-3.10;99.90
19000;DHT22;9633;50.980;13.850;2023-02-27T01:48:52;-3.10;99.90
19000;DHT22;9633;50.980;13.850;2023-02-27T01:50:30;-3.00;99.90
19000;DHT22;9633;50.980;13.850;2023-02-27T01:52:05;-2.90;99.90
19000;DHT22;9633;50.980;13.850;2023-02-27T01:53:42;-2.90;99.90
19000;DHT22;9633;50.980;13.850;2023-02-27T01:55:16;-2.90;99.90
19000;DHT22;9633;50.980;13.850;2023-02-27T01:56:51;-2.90;99.90
19000;DHT22;9633;50.980;13.850;2023-02-27T01:58:24;-2.80;99.90
19000;DHT22;9633;50.980;13.850;2023-02-27T01:59:58;-2.80;99.90
19000;DHT22;9633;50.980;13.850;2023-02-27T02:01:32;-2.80;99.90
19000;DHT22;9633;50.980;13.850;2023-02-27T02:03:13;-2.70;99.90
19000;DHT22;9633;50.980;13.850;2023-02-27T02:04:47;-2.70;99.90
19000;DHT22;9633;50.980;13.850;2023-02-27T02:06:23;-2.70;99.90
19000;DHT22;9633;50.980;13.850;2023-02-27T02:07:56;-2.70;99.90
19000;DHT22;9633;50.980;13.850;2023-02-27T02:09:35;-2.70;99.90
19000;DHT22;9633;50.980;13.850;2023-02-27T02:11:09;-2.80;99.90
19000;DHT22;9633;50.980;13.850;2023-02-27T02:12:44;-2.70;99.90
19000;DHT22;9633;50.980;13.850;2023-02-27T02:14:17;-2.80;99.90
19000;DHT22;9633;50.980;13.850;2023-02-27T02:16:03;-2.80;99.90
19000;DHT22;9633;50.980;13.850;2023-02-27T02:17:45;-2.80;99.90
19000;DHT22;9633;50.980;13.850;2023-02-27T02:24:37;-2.80;99.90
19000;DHT22;9633;50.980;13.850;2023-02-27T02:26:28;-2.60;99.90
19000;DHT22;9633;50.980;13.850;2023-02-27T02:28:14;-2.60;99.90
19000;DHT22;9633;50.980;13.850;2023-02-27T02:30:18;-2.50;99.90
19000;DHT22;9633;50.980;13.850;2023-02-27T02:32:27;-2.50;99.90
19000;DHT22;9633;50.980;13.850;2023-02-27T02:34:22;-2.50;99.90
19000;DHT22;9633;50.980;13.850;2023-02-27T02:36:26;-2.40;99.90
19000;DHT22;9633;50.980;13.850;2023-02-27T02:40:22;-2.40;99.90
19000;DHT22;9633;50.980;13.850;2023-02-27T02:42:03;-2.40;99.90
19000;DHT22;9633;50.980;13.850;2023-02-27T02:43:40;-2.30;99.90
19000;DHT22;9633;50.980;13.850;2023-02-27T02:45:24;-2.30;99.90
19000;DHT22;9633;50.980;13.850;2023-02-27T02:47:03;-2.30;99.90
19000;DHT22;9633;50.980;13.850;2023-02-27T02:48:40;-2.30;99.90
19000;DHT22;9633;50.980;13.850;2023-02-27T02:50:21;-2.30;99.90
19000;DHT22;9633;50.980;13.850;2023-02-27T02:52:03;-2.20;99.90
19000;DHT22;9633;50.980;13.850;2023-02-27T02:53:42;-2.20;99.90
19000;DHT22;9633;50.980;13.850;2023-02-27T02:55:23;-2.80;99.90
19000;DHT22;9633;50.980;13.850;2023-02-27T02:57:03;-2.30;99.90
19000;DHT22;9633;50.980;13.850;2023-02-27T02:58:44;-2.30;99.90
19000;DHT22;9633;50.980;13.850;2023-02-27T03:00:23;-2.30;99.90
19000;DHT22;9633;50.980;13.850;2023-02-27T03:02:04;-2.40;99.90
19000;DHT22;9633;50.980;13.850;2023-02-27T03:03:40;-2.30;99.90
19000;DHT22;9633;50.980;13.850;2023-02-27T03:05:20;-2.30;99.90
19000;DHT22;9633;50.980;13.850;2023-02-27T03:07:00;-2.30;99.90
19000;DHT22;9633;50.980;13.850;2023-02-27T03:08:38;-2.40;99.90
19000;DHT22;9633;50.980;13.850;2023-02-27T03:10:14;-2.20;99.90
19000;DHT22;9633;50.980;13.850;2023-02-27T03:11:52;-2.40;99.90
19000;DHT22;9633;50.980;13.850;2023-02-27T03:13:30;-2.60;99.90
19000;DHT22;9633;50.980;13.850;2023-02-27T03:15:10;-2.50;99.90
19000;DHT22;9633;50.980;13.850;2023-02-27T03:16:47;-2.50;99.90
19000;DHT22;9633;50.980;13.850;2023-02-27T03:18:26;-2.50;99.90
19000;DHT22;9633;50.980;13.850;2023-02-27T03:20:03;-2.50;99.90
19000;DHT22;9633;50.980;13.850;2023-02-27T03:21:43;-2.60;99.90
19000;DHT22;9633;50.980;13.850;2023-02-27T03:23:23;-2.50;99.90
19000;DHT22;9633;50.980;13.850;2023-02-27T03:24:59;-2.50;99.90
19000;DHT22;9633;50.980;13.850;2023-02-27T03:26:36;-2.40;99.90
19000;DHT22;9633;50.980;13.850;2023-02-27T03:28:16;-2.40;99.90
19000;DHT22;9633;50.980;13.850;2023-02-27T03:29:57;-2.40;99.90
19000;DHT22;9633;50.980;13.850;2023-02-27T03:31:36;-2.40;99.90
19000;DHT22;9633;50.980;13.850;2023-02-27T03:33:16;-2.40;99.90
19000;DHT22;9633;50.980;13.850;2023-02-27T03:34:51;-2.40;99.90
19000;DHT22;9633;50.980;13.850;2023-02-27T03:36:27;-2.40;99.90
19000;DHT22;9633;50.980;13.850;2023-02-27T03:38:09;-2.40;99.90
19000;DHT22;9633;50.980;13.850;2023-02-27T03:39:45;-2.40;99.90
19000;DHT22;9633;50.980;13.850;2023-02-27T03:41:27;-2.50;99.90
19000;DHT22;9633;50.980;13.850;2023-02-27T03:43:26;-2.40;99.90
19000;DHT22;9633;50.980;13.850;2023-02-27T03:45:06;-2.40;99.90
19000;DHT22;9633;50.980;13.850;2023-02-27T03:46:42;-2.40;99.90
19000;DHT22;9633;50.980;13.850;2023-02-27T03:48:15;-2.20;99.90
19000;DHT22;9633;50.980;13.850;2023-02-27T03:49:48;-2.50;99.90
19000;DHT22;9633;50.980;13.850;2023-02-27T03:51:23;-2.30;99.90
19000;DHT22;9633;50.980;13.850;2023-02-27T03:52:59;-2.20;99.90
19000;DHT22;9633;50.980;13.850;2023-02-27T03:54:35;-2.20;99.90
19000;DHT22;9633;50.980;13.850;2023-02-27T03:56:08;-2.10;99.90
19000;DHT22;9633;50.980;13.850;2023-02-27T03:57:46;-2.10;99.90
19000;DHT22;9633;50.980;13.850;2023-02-27T03:59:22;-2.10;99.90
19000;DHT22;9633;50.980;13.850;2023-02-27T04:00:57;-2.20;99.90
19000;DHT22;9633;50.980;13.850;2023-02-27T04:02:31;-2.20;99.90
19000;DHT22;9633;50.980;13.850;2023-02-27T04:04:10;-2.10;99.90
19000;DHT22;9633;50.980;13.850;2023-02-27T04:06:04;-2.20;99.90
19000;DHT22;9633;50.980;13.850;2023-02-27T04:08:04;-2.20;99.90
19000;DHT22;9633;50.980;13.850;2023-02-27T04:11:55;-2.20;99.90
19000;DHT22;9633;50.980;13.850;2023-02-27T04:13:42;-2.10;99.90
19000;DHT22;9633;50.980;13.850;2023-02-27T04:15:23;-2.10;99.90
19000;DHT22;9633;50.980;13.850;2023-02-27T04:17:16;-2.30;99.90
19000;DHT22;9633;50.980;13.850;2023-02-27T04:19:01;-2.10;99.90
19000;DHT22;9633;50.980;13.850;2023-02-27T04:20:41;-2.20;99.90
19000;DHT22;9633;50.980;13.850;2023-02-27T04:22:26;-2.40;99.90
19000;DHT22;9633;50.980;13.850;2023-02-27T04:24:10;-2.10;99.90
19000;DHT22;9633;50.980;13.850;2023-02-27T04:25:54;-2.40;99.90
19000;DHT22;9633;50.980;13.850;2023-02-27T04:27:37;-2.20;99.90
19000;DHT22;9633;50.980;13.850;2023-02-27T04:29:16;-2.20;99.90
19000;DHT22;9633;50.980;13.850;2023-02-27T04:31:11;-2.30;99.90
19000;DHT22;9633;50.980;13.850;2023-02-27T04:32:50;-2.20;99.90
19000;DHT22;9633;50.980;13.850;2023-02-27T04:34:31;-2.20;99.90
19000;DHT22;9633;50.980;13.850;2023-02-27T04:36:08;-2.30;99.90
19000;DHT22;9633;50.980;13.850;2023-02-27T04:37:49;-2.20;99.90
19000;DHT22;9633;50.980;13.850;2023-02-27T04:39:29;-2.10;99.90
19000;DHT22;9633;50.980;13.850;2023-02-27T04:41:07;-1.90;99.90
19000;DHT22;9633;50.980;13.850;2023-02-27T04:42:46;-2.20;99.90
19000;DHT22;9633;50.980;13.850;2023-02-27T04:44:23;-2.20;99.90
19000;DHT22;9633;50.980;13.850;2023-02-27T04:45:59;-2.30;99.90
19000;DHT22;9633;50.980;13.850;2023-02-27T04:47:38;-2.20;99.90
19000;DHT22;9633;50.980;13.850;2023-02-27T04:49:16;-2.10;99.90
19000;DHT22;9633;50.980;13.850;2023-02-27T04:50:53;-2.10;99.90
19000;DHT22;9633;50.980;13.850;2023-02-27T04:52:29;-2.10;99.90
19000;DHT22;9633;50.980;13.850;2023-02-27T04:54:08;-2.00;99.90
19000;DHT22;9633;50.980;13.850;2023-02-27T04:55:45;-2.00;99.90
19000;DHT22;9633;50.980;13.850;2023-02-27T04:57:21;-2.00;99.90
19000;DHT22;9633;50.980;13.850;2023-02-27T04:58:58;-2.00;99.90
19000;DHT22;9633;50.980;13.850;2023-02-27T05:00:35;-2.00;99.90
19000;DHT22;9633;50.980;13.850;2023-02-27T05:02:11;-2.00;99.90
19000;DHT22;9633;50.980;13.850;2023-02-27T05:03:52;-2.20;99.90
19000;DHT22;9633;50.980;13.850;2023-02-27T05:05:30;-1.90;99.90
19000;DHT22;9633;50.980;13.850;2023-02-27T05:07:07;-1.90;99.90
19000;DHT22;9633;50.980;13.850;2023-02-27T05:08:44;-1.90;99.90
19000;DHT22;9633;50.980;13.850;2023-02-27T05:10:27;-1.90;99.90
19000;DHT22;9633;50.980;13.850;2023-02-27T05:12:04;-2.00;99.90
19000;DHT22;9633;50.980;13.850;2023-02-27T05:13:45;-1.90;99.90
19000;DHT22;9633;50.980;13.850;2023-02-27T05:15:23;-2.00;99.90
19000;DHT22;9633;50.980;13.850;2023-02-27T05:17:01;-1.90;99.90
19000;DHT22;9633;50.980;13.850;2023-02-27T05:18:36;-2.00;99.90
19000;DHT22;9633;50.980;13.850;2023-02-27T05:20:12;-2.00;99.90
19000;DHT22;9633;50.980;13.850;2023-02-27T05:21:50;-2.00;99.90
19000;DHT22;9633;50.980;13.850;2023-02-27T05:23:31;-2.10;99.90
19000;DHT22;9633;50.980;13.850;2023-02-27T05:25:11;-2.10;99.90
19000;DHT22;9633;50.980;13.850;2023-02-27T05:26:58;-2.00;99.90
19000;DHT22;9633;50.980;13.850;2023-02-27T05:28:38;-2.00;99.90
19000;DHT22;9633;50.980;13.850;2023-02-27T05:30:20;-2.10;99.90
19000;DHT22;9633;50.980;13.850;2023-02-27T05:32:03;-2.10;99.90
19000;DHT22;9633;50.980;13.850;2023-02-27T05:33:40;-2.10;99.90
19000;DHT22;9633;50.980;13.850;2023-02-27T05:35:22;-2.10;99.90
19000;DHT22;9633;50.980;13.850;2023-02-27T05:37:02;-2.10;99.90
19000;DHT22;9633;50.980;13.850;2023-02-27T05:38:40;-2.10;99.90
19000;DHT22;9633;50.980;13.850;2023-02-27T05:40:18;-2.20;99.90
19000;DHT22;9633;50.980;13.850;2023-02-27T05:41:55;-1.90;99.90
19000;DHT22;9633;50.980;13.850;2023-02-27T05:43:33;-2.00;99.90
19000;DHT22;9633;50.980;13.850;2023-02-27T05:45:10;-2.00;99.90
19000;DHT22;9633;50.980;13.850;2023-02-27T05:46:48;-2.10;99.90
19000;DHT22;9633;50.980;13.850;2023-02-27T05:48:26;-2.10;99.90
19000;DHT22;9633;50.980;13.850;2023-02-27T05:50:04;-2.10;99.90
19000;DHT22;9633;50.980;13.850;2023-02-27T05:51:45;-2.10;99.90
19000;DHT22;9633;50.980;13.850;2023-02-27T05:53:20;-2.10;99.90
19000;DHT22;9633;50.980;13.850;2023-02-27T05:54:57;-2.20;99.90
19000;DHT22;9633;50.980;13.850;2023-02-27T05:56:32;-2.10;99.90
19000;DHT22;9633;50.980;13.850;2023-02-27T05:58:12;-2.20;99.90
19000;DHT22;9633;50.980;13.850;2023-02-27T05:59:53;-2.10;99.90
19000;DHT22;9633;50.980;13.850;2023-02-27T06:01:25;-2.10;99.90
19000;DHT22;9633;50.980;13.850;2023-02-27T06:02:59;-2.10;99.90
19000;DHT22;9633;50.980;13.850;2023-02-27T06:04:31;-2.20;99.90
19000;DHT22;9633;50.980;13.850;2023-02-27T06:06:06;-2.00;99.90
19000;DHT22;9633;50.980;13.850;2023-02-27T06:07:41;-2.00;99.90
19000;DHT22;9633;50.980;13.850;2023-02-27T06:09:15;-2.00;99.90
19000;DHT22;9633;50.980;13.850;2023-02-27T06:10:48;-2.00;99.90
19000;DHT22;9633;50.980;13.850;2023-02-27T06:12:21;-2.00;99.90
19000;DHT22;9633;50.980;13.850;2023-02-27T06:13:54;-2.00;99.90
19000;DHT22;9633;50.980;13.850;2023-02-27T06:15:27;-1.90;99.90
19000;DHT22;9633;50.980;13.850;2023-02-27T06:17:00;-1.90;99.90
19000;DHT22;9633;50.980;13.850;2023-02-27T06:18:34;-2.00;99.90
19000;DHT22;9633;50.980;13.850;2023-02-27T06:20:09;-1.80;99.90
19000;DHT22;9633;50.980;13.850;2023-02-27T06:21:42;-1.80;99.90
19000;DHT22;9633;50.980;13.850;2023-02-27T06:23:17;-1.70;99.90
19000;DHT22;9633;50.980;13.850;2023-02-27T06:24:50;-1.70;99.90
19000;DHT22;9633;50.980;13.850;2023-02-27T06:26:24;-1.60;99.90
19000;DHT22;9633;50.980;13.850;2023-02-27T06:27:57;-1.40;99.90
19000;DHT22;9633;50.980;13.850;2023-02-27T06:29:30;-1.10;99.90
19000;DHT22;9633;50.980;13.850;2023-02-27T06:31:03;-0.60;99.90
19000;DHT22;9633;50.980;13.850;2023-02-27T06:32:36;-0.10;99.90
19000;DHT22;9633;50.980;13.850;2023-02-27T06:34:09;0.70;99.90
19000;DHT22;9633;50.980;13.850;2023-02-27T06:35:43;1.00;99.90
19000;DHT22;9633;50.980;13.850;2023-02-27T06:37:16;0.60;99.90
19000;DHT22;9633;50.980;13.850;2023-02-27T06:38:51;0.30;99.90
19000;DHT22;9633;50.980;13.850;2023-02-27T06:40:24;0.70;99.90
19000;DHT22;9633;50.980;13.850;2023-02-27T06:41:58;1.30;99.90
19000;DHT22;9633;50.980;13.850;2023-02-27T06:43:31;2.00;99.90
19000;DHT22;9633;50.980;13.850;2023-02-27T06:45:08;2.80;99.90
19000;DHT22;9633;50.980;13.850;2023-02-27T06:46:41;3.40;99.90
19000;DHT22;9633;50.980;13.850;2023-02-27T06:48:14;4.00;99.90
19000;DHT22;9633;50.980;13.850;2023-02-27T06:49:48;4.50;99.90
19000;DHT22;9633;50.980;13.850;2023-02-27T06:51:21;4.40;99.90
19000;DHT22;9633;50.980;13.850;2023-02-27T06:52:54;3.90;99.90
19000;DHT22;9633;50.980;13.850;2023-02-27T06:54:28;3.40;99.90
19000;DHT22;9633;50.980;13.850;2023-02-27T06:56:01;2.90;99.90
19000;DHT22;9633;50.980;13.850;2023-02-27T06:57:35;2.50;99.90
19000;DHT22;9633;50.980;13.850;2023-02-27T06:59:09;2.00;99.90
19000;DHT22;9633;50.980;13.850;2023-02-27T07:00:42;1.70;99.90
19000;DHT22;9633;50.980;13.850;2023-02-27T07:02:16;1.50;99.90
19000;DHT22;9633;50.980;13.850;2023-02-27T07:03:50;1.30;99.90
19000;DHT22;9633;50.980;13.850;2023-02-27T07:05:23;1.10;99.90
19000;DHT22;9633;50.980;13.850;2023-02-27T07:06:57;0.90;99.90
19000;DHT22;9633;50.980;13.850;2023-02-27T07:08:50;0.70;99.90
19000;DHT22;9633;50.980;13.850;2023-02-27T07:10:39;0.50;99.90
19000;DHT22;9633;50.980;13.850;2023-02-27T07:12:14;0.50;99.90
19000;DHT22;9633;50.980;13.850;2023-02-27T07:13:46;0.40;99.90
19000;DHT22;9633;50.980;13.850;2023-02-27T07:15:20;0.20;99.90
19000;DHT22;9633;50.980;13.850;2023-02-27T07:16:53;0.10;99.90
19000;DHT22;9633;50.980;13.850;2023-02-27T07:18:26;0.00;99.90
19000;DHT22;9633;50.980;13.850;2023-02-27T07:19:59;-0.10;99.90
19000;DHT22;9633;50.980;13.850;2023-02-27T07:21:33;-0.10;99.90
19000;DHT22;9633;50.980;13.850;2023-02-27T07:23:06;0.10;99.90
19000;DHT22;9633;50.980;13.850;2023-02-27T07:24:39;0.20;99.90
19000;DHT22;9633;50.980;13.850;2023-02-27T07:26:14;0.00;99.90
19000;DHT22;9633;50.980;13.850;2023-02-27T07:27:47;0.10;99.90
19000;DHT22;9633;50.980;13.850;2023-02-27T07:29:21;0.40;99.90
19000;DHT22;9633;50.980;13.850;2023-02-27T07:30:54;0.60;99.90
19000;DHT22;9633;50.980;13.850;2023-02-27T07:32:28;0.50;99.90
19000;DHT22;9633;50.980;13.850;2023-02-27T07:34:01;0.80;99.90
19000;DHT22;9633;50.980;13.850;2023-02-27T07:35:34;0.80;99.90
19000;DHT22;9633;50.980;13.850;2023-02-27T07:37:07;0.60;99.90
19000;DHT22;9633;50.980;13.850;2023-02-27T07:38:40;0.60;99.90
19000;DHT22;9633;50.980;13.850;2023-02-27T07:40:14;0.80;99.90
19000;DHT22;9633;50.980;13.850;2023-02-27T07:41:48;0.60;99.90
19000;DHT22;9633;50.980;13.850;2023-02-27T07:43:22;0.90;99.90
19000;DHT22;9633;50.980;13.850;2023-02-27T07:44:55;0.70;99.90
19000;DHT22;9633;50.980;13.850;2023-02-27T07:46:28;0.60;99.90
19000;DHT22;9633;50.980;13.850;2023-02-27T07:48:02;0.40;99.90
19000;DHT22;9633;50.980;13.850;2023-02-27T07:49:35;0.30;99.90
19000;DHT22;9633;50.980;13.850;2023-02-27T07:51:08;0.10;99.90
19000;DHT22;9633;50.980;13.850;2023-02-27T07:52:42;0.30;99.90
19000;DHT22;9633;50.980;13.850;2023-02-27T07:54:15;0.20;99.90
19000;DHT22;9633;50.980;13.850;2023-02-27T07:55:48;0.20;99.90
19000;DHT22;9633;50.980;13.850;2023-02-27T07:57:23;0.30;99.90
19000;DHT22;9633;50.980;13.850;2023-02-27T07:58:56;0.30;99.90
19000;DHT22;9633;50.980;13.850;2023-02-27T08:00:29;0.20;99.90
19000;DHT22;9633;50.980;13.850;2023-02-27T08:02:03;0.20;99.90
19000;DHT22;9633;50.980;13.850;2023-02-27T08:03:37;0.20;99.90
19000;DHT22;9633;50.980;13.850;2023-02-27T08:05:10;0.10;99.90
19000;DHT22;9633;50.980;13.850;2023-02-27T08:06:43;0.10;99.90
19000;DHT22;9633;50.980;13.850;2023-02-27T08:08:16;0.10;99.90
19000;DHT22;9633;50.980;13.850;2023-02-27T08:09:49;0.10;99.90
19000;DHT22;9633;50.980;13.850;2023-02-27T08:11:22;0.00;99.90
19000;DHT22;9633;50.980;13.850;2023-02-27T08:12:58;0.00;99.90
19000;DHT22;9633;50.980;13.850;2023-02-27T08:14:31;0.10;99.90
19000;DHT22;9633;50.980;13.850;2023-02-27T08:16:05;0.10;99.90
19000;DHT22;9633;50.980;13.850;2023-02-27T08:17:39;0.20;99.90
19000;DHT22;9633;50.980;13.850;2023-02-27T08:19:12;0.50;99.90
19000;DHT22;9633;50.980;13.850;2023-02-27T08:20:45;0.60;99.90
19000;DHT22;9633;50.980;13.850;2023-02-27T08:22:19;0.60;99.90
19000;DHT22;9633;50.980;13.850;2023-02-27T08:23:52;0.60;99.90
19000;DHT22;9633;50.980;13.850;2023-02-27T08:25:25;0.90;99.90
19000;DHT22;9633;50.980;13.850;2023-02-27T08:26:58;1.10;99.90
19000;DHT22;9633;50.980;13.850;2023-02-27T08:28:33;1.30;99.90
19000;DHT22;9633;50.980;13.850;2023-02-27T08:30:08;1.10;99.90
19000;DHT22;9633;50.980;13.850;2023-02-27T08:31:42;0.80;99.90
19000;DHT22;9633;50.980;13.850;2023-02-27T08:33:15;0.80;99.90
19000;DHT22;9633;50.980;13.850;2023-02-27T08:34:48;0.80;99.90
19000;DHT22;9633;50.980;13.850;2023-02-27T08:36:22;0.90;99.90
19000;DHT22;9633;50.980;13.850;2023-02-27T08:37:55;0.80;99.90
19000;DHT22;9633;50.980;13.850;2023-02-27T08:39:28;0.70;99.90
19000;DHT22;9633;50.980;13.850;2023-02-27T08:41:02;1.00;99.90
19000;DHT22;9633;50.980;13.850;2023-02-27T08:42:35;0.90;99.90
19000;DHT22;9633;50.980;13.850;2023-02-27T08:44:11;1.00;99.90
19000;DHT22;9633;50.980;13.850;2023-02-27T08:45:45;1.40;99.90
19000;DHT22;9633;50.980;13.850;2023-02-27T08:47:18;1.70;99.90
19000;DHT22;9633;50.980;13.850;2023-02-27T08:48:51;1.80;99.90
19000;DHT22;9633;50.980;13.850;2023-02-27T08:50:25;1.90;99.90
19000;DHT22;9633;50.980;13.850;2023-02-27T08:51:58;1.80;99.90
19000;DHT22;9633;50.980;13.850;2023-02-27T08:53:31;1.40;99.90
19000;DHT22;9633;50.980;13.850;2023-02-27T08:55:06;1.20;99.90
19000;DHT22;9633;50.980;13.850;2023-02-27T08:56:39;1.30;99.90
19000;DHT22;9633;50.980;13.850;2023-02-27T08:58:12;1.50;99.90
19000;DHT22;9633;50.980;13.850;2023-02-27T08:59:49;2.00;99.90
19000;DHT22;9633;50.980;13.850;2023-02-27T09:01:23;2.00;99.90
19000;DHT22;9633;50.980;13.850;2023-02-27T09:02:58;1.90;99.90
19000;DHT22;9633;50.980;13.850;2023-02-27T09:04:32;2.10;99.90
19000;DHT22;9633;50.980;13.850;2023-02-27T09:06:05;2.20;99.90
19000;DHT22;9633;50.980;13.850;2023-02-27T09:07:39;1.10;99.90
19000;DHT22;9633;50.980;13.850;2023-02-27T09:09:12;1.40;99.90
19000;DHT22;9633;50.980;13.850;2023-02-27T09:10:46;1.50;99.90
19000;DHT22;9633;50.980;13.850;2023-02-27T09:12:19;1.40;99.90
19000;DHT22;9633;50.980;13.850;2023-02-27T09:13:52;1.40;99.90
19000;DHT22;9633;50.980;13.850;2023-02-27T09:15:27;2.00;99.90
19000;DHT22;9633;50.980;13.850;2023-02-27T09:17:02;2.10;99.90
19000;DHT22;9633;50.980;13.850;2023-02-27T09:18:35;1.60;99.90
19000;DHT22;9633;50.980;13.850;2023-02-27T09:20:10;2.00;99.90
19000;DHT22;9633;50.980;13.850;2023-02-27T09:21:43;2.20;99.90
19000;DHT22;9633;50.980;13.850;2023-02-27T09:23:17;2.10;99.90
19000;DHT22;9633;50.980;13.850;2023-02-27T09:24:50;2.10;99.90
19000;DHT22;9633;50.980;13.850;2023-02-27T09:26:23;2.40;99.90
19000;DHT22;9633;50.980;13.850;2023-02-27T09:31:27;3.30;99.90
19000;DHT22;9633;50.980;13.850;2023-02-27T09:33:04;3.80;99.90
19000;DHT22;9633;50.980;13.850;2023-02-27T09:34:37;3.80;99.90
19000;DHT22;9633;50.980;13.850;2023-02-27T09:36:10;4.00;99.90
19000;DHT22;9633;50.980;13.850;2023-02-27T09:37:43;4.40;99.90
19000;DHT22;9633;50.980;13.850;2023-02-27T09:39:17;4.40;99.90
19000;DHT22;9633;50.980;13.850;2023-02-27T09:40:52;4.20;99.90
19000;DHT22;9633;50.980;13.850;2023-02-27T09:42:34;3.90;99.90
19000;DHT22;9633;50.980;13.850;2023-02-27T09:44:18;3.30;99.90
19000;DHT22;9633;50.980;13.850;2023-02-27T09:46:15;3.20;99.90
19000;DHT22;9633;50.980;13.850;2023-02-27T09:47:53;2.70;99.90
19000;DHT22;9633;50.980;13.850;2023-02-27T09:49:33;2.70;99.90
19000;DHT22;9633;50.980;13.850;2023-02-27T09:51:07;2.70;99.90
19000;DHT22;9633;50.980;13.850;2023-02-27T09:52:40;2.50;99.90
19000;DHT22;9633;50.980;13.850;2023-02-27T09:54:14;2.40;99.90
19000;DHT22;9633;50.980;13.850;2023-02-27T09:55:47;2.50;99.90
19000;DHT22;9633;50.980;13.850;2023-02-27T09:57:28;2.60;99.90
19000;DHT22;9633;50.980;13.850;2023-02-27T09:59:14;2.00;99.90
19000;DHT22;9633;50.980;13.850;2023-02-27T10:00:52;2.40;99.90
19000;DHT22;9633;50.980;13.850;2023-02-27T10:02:36;2.70;99.90
19000;DHT22;9633;50.980;13.850;2023-02-27T10:04:33;2.80;99.90
19000;DHT22;9633;50.980;13.850;2023-02-27T10:06:15;3.10;99.90
19000;DHT22;9633;50.980;13.850;2023-02-27T10:07:56;3.20;99.90
19000;DHT22;9633;50.980;13.850;2023-02-27T10:09:39;3.30;99.90
19000;DHT22;9633;50.980;13.850;2023-02-27T10:11:19;3.30;99.90
19000;DHT22;9633;50.980;13.850;2023-02-27T10:13:05;3.70;99.90
19000;DHT22;9633;50.980;13.850;2023-02-27T10:14:46;4.10;99.90
19000;DHT22;9633;50.980;13.850;2023-02-27T10:16:22;4.10;99.90
19000;DHT22;9633;50.980;13.850;2023-02-27T10:17:59;4.10;99.90
19000;DHT22;9633;50.980;13.850;2023-02-27T10:19:55;4.00;99.90
19000;DHT22;9633;50.980;13.850;2023-02-27T10:21:33;4.20;99.90
19000;DHT22;9633;50.980;13.850;2023-02-27T10:23:12;4.10;99.90
19000;DHT22;9633;50.980;13.850;2023-02-27T10:24:50;4.40;99.90
19000;DHT22;9633;50.980;13.850;2023-02-27T10:26:27;3.50;99.90
19000;DHT22;9633;50.980;13.850;2023-02-27T10:28:11;3.80;99.90